createdAt,value
2019-04-01T04:00:54.809Z,995.71
2019-04-01T04:01:54.974Z,995.71
2019-04-01T04:02:55.146Z,995.70
2019-04-01T04:03:55.314Z,995.75
2019-04-01T04:04:55.486Z,995.72
2019-04-01T04:05:55.661Z,995.72
2019-04-01T04:06:55.836Z,995.71
2019-04-01T04:07:55.997Z,995.75
2019-04-01T04:08:56.169Z,995.78
2019-04-01T04:09:56.341Z,995.71
2019-04-01T04:10:56.510Z,995.75
2019-04-01T04:11:56.710Z,995.79
2019-04-01T04:12:56.850Z,995.78
2019-04-01T04:13:57.018Z,995.78
2019-04-01T04:14:57.193Z,995.78
2019-04-01T04:15:57.363Z,995.79
2019-04-01T04:16:57.529Z,995.72
2019-04-01T04:17:57.698Z,995.80
2019-04-01T04:18:57.872Z,995.77
2019-04-01T04:19:58.048Z,995.79
2019-04-01T04:20:58.221Z,995.81
2019-04-01T04:21:58.392Z,995.76
2019-04-01T04:22:58.562Z,995.81
2019-04-01T04:23:58.733Z,995.85
2019-04-01T04:24:58.903Z,995.82
2019-04-01T04:25:59.088Z,995.80
2019-04-01T04:26:59.253Z,995.83
2019-04-01T04:27:59.425Z,995.83
2019-04-01T04:28:59.606Z,995.85
2019-04-01T04:29:59.777Z,995.85
2019-04-01T04:30:59.945Z,995.86
2019-04-01T04:32:00.116Z,995.84
2019-04-01T04:33:00.286Z,995.84
2019-04-01T04:34:00.454Z,995.85
2019-04-01T04:35:00.623Z,995.82
2019-04-01T04:36:00.793Z,995.86
2019-04-01T04:37:00.963Z,995.82
2019-04-01T04:38:01.138Z,995.83
2019-04-01T04:39:01.301Z,995.82
2019-04-01T04:40:01.493Z,995.82
2019-04-01T04:41:01.629Z,995.80
2019-04-01T04:42:01.798Z,995.83
2019-04-01T04:43:01.969Z,995.81
2019-04-01T04:44:02.136Z,995.80
2019-04-01T04:45:02.312Z,995.75
2019-04-01T04:46:02.483Z,995.77
2019-04-01T04:47:02.651Z,995.80
2019-04-01T04:48:02.821Z,995.79
2019-04-01T04:49:02.998Z,995.75
2019-04-01T04:50:03.162Z,995.77
2019-04-01T04:51:03.332Z,995.77
2019-04-01T04:52:04.706Z,995.79
2019-04-01T04:53:03.674Z,995.79
2019-04-01T04:54:03.843Z,995.78
2019-04-01T04:55:04.013Z,995.78
2019-04-01T04:56:04.182Z,995.75
2019-04-01T04:57:04.351Z,995.74
2019-04-01T04:58:04.520Z,995.76
2019-04-01T04:59:04.690Z,995.75
2019-04-01T05:00:04.875Z,995.76
2019-04-01T05:01:05.030Z,995.80
2019-04-01T05:02:05.197Z,995.80
2019-04-01T05:03:05.369Z,995.80
2019-04-01T05:04:05.542Z,995.86
2019-04-01T05:05:05.712Z,995.84
2019-04-01T05:06:05.882Z,995.84
2019-04-01T05:07:06.056Z,995.85
2019-04-01T05:08:06.226Z,995.83
2019-04-01T05:09:06.391Z,995.85
2019-04-01T05:10:06.562Z,995.82
2019-04-01T05:11:06.732Z,995.83
2019-04-01T05:12:06.902Z,995.81
2019-04-01T05:13:07.073Z,995.77
2019-04-01T05:14:07.243Z,995.83
2019-04-01T05:15:07.412Z,995.82
2019-04-01T05:16:07.580Z,995.82
2019-04-01T05:17:07.748Z,995.85
2019-04-01T05:18:07.918Z,995.84
2019-04-01T05:19:08.089Z,995.85
2019-04-01T05:20:08.257Z,995.86
2019-04-01T05:21:08.430Z,995.85
2019-04-01T05:22:08.597Z,995.85
2019-04-01T05:23:08.764Z,995.87
2019-04-01T05:24:08.937Z,995.86
2019-04-01T05:25:09.105Z,995.87
2019-04-01T05:26:09.276Z,995.91
2019-04-01T05:27:09.447Z,995.90
2019-04-01T05:28:09.605Z,995.90
2019-04-01T05:29:09.773Z,995.89
2019-04-01T05:30:09.944Z,995.90
2019-04-01T05:31:10.116Z,995.92
2019-04-01T05:32:10.283Z,995.87
2019-04-01T05:33:10.456Z,995.89
2019-04-01T05:34:10.619Z,995.90
2019-04-01T05:35:10.787Z,995.91
2019-04-01T05:36:10.954Z,995.91
2019-04-01T05:37:11.129Z,995.93
2019-04-01T05:38:11.292Z,995.91
2019-04-01T05:39:11.464Z,995.94
2019-04-01T05:40:11.633Z,995.96
2019-04-01T05:41:11.813Z,995.90
2019-04-01T05:42:11.976Z,995.97
2019-04-01T05:43:12.144Z,995.96
2019-04-01T05:44:12.325Z,995.94
2019-04-01T05:45:12.483Z,995.92
2019-04-01T05:46:12.651Z,995.92
2019-04-01T05:47:12.822Z,995.94
2019-04-01T05:48:12.994Z,995.88
2019-04-01T05:49:13.163Z,995.95
2019-04-01T05:50:13.332Z,995.92
2019-04-01T05:51:13.499Z,995.93
2019-04-01T05:52:13.671Z,995.94
2019-04-01T05:53:13.840Z,995.99
2019-04-01T05:54:14.011Z,995.96
2019-04-01T05:55:14.188Z,996.02
2019-04-01T05:56:14.361Z,996.03
2019-04-01T05:57:14.525Z,996.00
2019-04-01T05:58:14.711Z,996.03
2019-04-01T05:59:14.881Z,995.99
2019-04-01T06:00:15.050Z,996.03
2019-04-01T06:01:15.217Z,996.02
2019-04-01T06:02:15.391Z,995.99
2019-04-01T06:03:15.559Z,996.03
2019-04-01T06:04:15.728Z,996.02
2019-04-01T06:05:16.748Z,996.02
2019-04-01T06:06:16.035Z,996.07
2019-04-01T06:07:16.243Z,995.97
2019-04-01T06:08:16.371Z,996.02
2019-04-01T06:09:16.625Z,996.04
2019-04-01T06:10:16.710Z,996.00
2019-04-01T06:11:16.878Z,996.02
2019-04-01T06:12:17.039Z,996.10
2019-04-01T06:13:17.213Z,996.08
2019-04-01T06:14:17.399Z,996.08
2019-04-01T06:15:17.578Z,996.09
2019-04-01T06:16:17.741Z,996.10
2019-04-01T06:17:17.912Z,996.04
2019-04-01T06:18:18.087Z,996.09
2019-04-01T06:19:18.257Z,996.10
2019-04-01T06:20:18.426Z,996.05
2019-04-01T06:21:18.593Z,996.11
2019-04-01T06:22:18.767Z,996.12
2019-04-01T06:23:18.934Z,996.09
2019-04-01T06:24:19.103Z,996.05
2019-04-01T06:25:19.283Z,996.08
2019-04-01T06:26:19.462Z,996.06
2019-04-01T06:27:19.611Z,996.07
2019-04-01T06:28:19.781Z,996.11
2019-04-01T06:29:19.951Z,996.13
2019-04-01T06:30:20.121Z,996.11
2019-04-01T06:31:20.290Z,996.14
2019-04-01T06:32:20.462Z,996.16
2019-04-01T06:33:20.632Z,996.14
2019-04-01T06:34:20.801Z,996.15
2019-04-01T06:35:20.970Z,996.15
2019-04-01T06:36:21.145Z,996.18
2019-04-01T06:37:21.308Z,996.19
2019-04-01T06:38:21.478Z,996.17
2019-04-01T06:39:21.667Z,996.16
2019-04-01T06:40:21.835Z,996.17
2019-04-01T06:41:22.006Z,996.17
2019-04-01T06:42:22.179Z,996.17
2019-04-01T06:43:22.354Z,996.15
2019-04-01T06:44:22.523Z,996.18
2019-04-01T06:45:22.692Z,996.16
2019-04-01T06:46:22.861Z,996.15
2019-04-01T06:47:23.291Z,996.16
2019-04-01T06:48:23.185Z,996.13
2019-04-01T06:49:23.355Z,996.13
2019-04-01T06:50:23.524Z,996.15
2019-04-01T06:51:23.693Z,996.12
2019-04-01T06:52:23.866Z,996.11
2019-04-01T06:53:24.035Z,996.12
2019-04-01T06:54:24.205Z,996.05
2019-04-01T06:55:24.374Z,996.06
2019-04-01T06:56:24.547Z,996.10
2019-04-01T06:57:24.713Z,996.05
2019-04-01T06:58:24.884Z,996.07
2019-04-01T06:59:25.055Z,996.07
2019-04-01T07:00:25.228Z,996.08
2019-04-01T07:01:25.395Z,996.07
2019-04-01T07:02:25.653Z,996.06
2019-04-01T07:03:25.737Z,996.07
2019-04-01T07:04:25.911Z,996.04
2019-04-01T07:05:26.077Z,996.02
2019-04-01T07:06:26.248Z,996.03
2019-04-01T07:07:26.416Z,995.98
2019-04-01T07:08:26.587Z,995.97
2019-04-01T07:09:26.757Z,996.00
2019-04-01T07:10:26.932Z,995.99
2019-04-01T07:11:27.123Z,996.01
2019-04-01T07:12:27.368Z,995.99
2019-04-01T07:13:27.439Z,995.98
2019-04-01T07:14:27.606Z,996.01
2019-04-01T07:15:27.776Z,995.99
2019-04-01T07:16:27.946Z,995.92
2019-04-01T07:17:28.117Z,995.98
2019-04-01T07:18:28.288Z,995.94
2019-04-01T07:19:28.459Z,995.93
2019-04-01T07:20:28.635Z,995.92
2019-04-01T07:21:28.801Z,995.96
2019-04-01T07:22:28.972Z,995.98
2019-04-01T07:23:29.144Z,995.96
2019-04-01T07:24:29.312Z,995.95
2019-04-01T07:25:29.484Z,996.00
2019-04-01T07:26:29.650Z,995.99
2019-04-01T07:27:29.822Z,995.96
2019-04-01T07:28:29.991Z,995.93
2019-04-01T07:29:30.164Z,995.97
2019-04-01T07:30:30.334Z,995.94
2019-04-01T07:31:30.508Z,995.98
2019-04-01T07:32:30.676Z,995.97
2019-04-01T07:33:30.847Z,995.96
2019-04-01T07:34:31.015Z,995.95
2019-04-01T07:35:31.202Z,995.93
2019-04-01T07:36:31.375Z,995.95
2019-04-01T07:37:31.543Z,995.90
2019-04-01T07:38:31.717Z,995.96
2019-04-01T07:39:31.889Z,995.96
2019-04-01T07:40:32.059Z,995.94
2019-04-01T07:41:32.229Z,995.97
2019-04-01T07:42:32.400Z,995.96
2019-04-01T07:43:32.570Z,995.91
2019-04-01T07:44:32.742Z,995.92
2019-04-01T07:45:32.910Z,995.88
2019-04-01T07:46:33.083Z,995.89
2019-04-01T07:47:33.253Z,995.91
2019-04-01T07:48:33.426Z,995.92
2019-04-01T07:49:33.627Z,995.90
2019-04-01T07:50:33.774Z,995.88
2019-04-01T07:51:33.944Z,995.87
2019-04-01T07:52:34.111Z,995.94
2019-04-01T07:53:34.283Z,995.90
2019-04-01T07:54:34.455Z,995.95
2019-04-01T07:55:34.620Z,995.93
2019-04-01T07:56:34.790Z,995.91
2019-04-01T07:57:34.977Z,995.93
2019-04-01T07:58:35.137Z,995.91
2019-04-01T07:59:35.306Z,995.87
2019-04-01T08:00:35.476Z,995.91
2019-04-01T08:01:35.647Z,995.89
2019-04-01T08:02:35.824Z,995.95
2019-04-01T08:03:35.992Z,995.92
2019-04-01T08:04:36.165Z,995.90
2019-04-01T08:05:36.351Z,995.90
2019-04-01T08:06:36.555Z,995.92
2019-04-01T08:07:36.678Z,995.89
2019-04-01T08:08:36.850Z,995.91
2019-04-01T08:09:37.022Z,995.89
2019-04-01T08:10:37.193Z,995.95
2019-04-01T08:11:37.368Z,995.95
2019-04-01T08:12:37.538Z,995.87
2019-04-01T08:13:37.712Z,995.84
2019-04-01T08:14:37.889Z,995.90
2019-04-01T08:15:38.057Z,995.87
2019-04-01T08:16:38.237Z,995.85
2019-04-01T08:17:38.409Z,995.85
2019-04-01T08:18:38.581Z,995.80
2019-04-01T08:19:38.755Z,995.83
2019-04-01T08:20:38.927Z,995.86
2019-04-01T08:21:39.104Z,995.87
2019-04-01T08:22:39.274Z,995.84
2019-04-01T08:23:39.446Z,995.81
2019-04-01T08:24:39.622Z,995.83
2019-04-01T08:25:39.792Z,995.89
2019-04-01T08:26:39.967Z,995.85
2019-04-01T08:27:40.142Z,995.88
2019-04-01T08:28:40.317Z,995.88
2019-04-01T08:29:40.479Z,995.88
2019-04-01T08:30:40.653Z,995.93
2019-04-01T08:31:40.828Z,995.93
2019-04-01T08:32:40.999Z,995.93
2019-04-01T08:33:41.178Z,995.89
2019-04-01T08:34:41.350Z,995.93
2019-04-01T08:35:41.523Z,995.86
2019-04-01T08:36:41.696Z,995.95
2019-04-01T08:37:41.870Z,995.89
2019-04-01T08:38:42.044Z,995.88
2019-04-01T08:39:42.236Z,995.91
2019-04-01T08:40:42.389Z,995.89
2019-04-01T08:41:42.564Z,995.89
2019-04-01T08:42:42.736Z,995.86
2019-04-01T08:43:42.910Z,995.89
2019-04-01T08:44:43.086Z,995.89
2019-04-01T08:45:43.262Z,995.89
2019-04-01T08:46:43.431Z,995.92
2019-04-01T08:47:43.611Z,995.90
2019-04-01T08:48:43.783Z,995.87
2019-04-01T08:49:43.955Z,995.91
2019-04-01T08:50:44.139Z,995.86
2019-04-01T08:51:44.315Z,995.90
2019-04-01T08:52:44.492Z,995.95
2019-04-01T08:53:44.668Z,995.89
2019-04-01T08:54:44.845Z,995.91
2019-04-01T08:55:45.020Z,995.98
2019-04-01T08:56:45.194Z,996.00
2019-04-01T08:57:45.367Z,995.95
2019-04-01T08:58:45.541Z,995.90
2019-04-01T08:59:45.716Z,995.90
2019-04-01T09:00:45.890Z,995.97
2019-04-01T09:01:46.069Z,995.98
2019-04-01T09:02:46.244Z,996.05
2019-04-01T09:03:46.421Z,996.02
2019-04-01T09:04:46.595Z,996.06
2019-04-01T09:05:46.785Z,996.17
2019-04-01T09:06:46.944Z,996.22
2019-04-01T09:07:47.124Z,996.38
2019-04-01T09:08:47.292Z,996.56
2019-04-01T09:09:47.467Z,996.72
2019-04-01T09:10:47.644Z,996.48
2019-04-01T09:11:47.817Z,996.23
2019-04-01T09:12:47.993Z,996.15
2019-04-01T09:13:48.167Z,995.99
2019-04-01T09:14:48.341Z,996.05
2019-04-01T09:15:48.515Z,995.94
2019-04-01T09:16:48.689Z,995.98
2019-04-01T09:17:48.863Z,995.98
2019-04-01T09:18:49.036Z,996.01
2019-04-01T09:19:49.211Z,995.95
2019-04-01T09:20:49.387Z,996.03
2019-04-01T09:21:49.558Z,996.00
2019-04-01T09:22:49.740Z,996.01
2019-04-01T09:23:52.145Z,995.99
2019-04-01T09:24:50.090Z,995.98
2019-04-01T09:25:50.286Z,995.95
2019-04-01T09:26:50.444Z,995.99
2019-04-01T09:27:50.622Z,995.97
2019-04-01T09:28:50.796Z,995.98
2019-04-01T09:29:50.976Z,995.95
2019-04-01T09:30:51.148Z,995.94
2019-04-01T09:31:51.320Z,995.88
2019-04-01T09:32:51.496Z,995.99
2019-04-01T09:33:51.672Z,995.95
2019-04-01T09:34:51.849Z,995.93
2019-04-01T09:35:52.025Z,995.99
2019-04-01T09:36:52.202Z,996.03
2019-04-01T09:37:52.377Z,996.01
2019-04-01T09:38:52.551Z,996.00
2019-04-01T09:39:52.728Z,995.99
2019-04-01T09:40:52.901Z,996.05
2019-04-01T09:41:53.085Z,996.00
2019-04-01T09:42:53.250Z,996.00
2019-04-01T09:43:53.431Z,995.96
2019-04-01T09:44:53.606Z,995.94
2019-04-01T09:45:53.780Z,995.96
2019-04-01T09:46:53.957Z,995.99
2019-04-01T09:47:54.134Z,995.99
2019-04-01T09:48:54.317Z,995.94
2019-04-01T09:49:54.493Z,995.92
2019-04-01T09:50:54.670Z,995.87
2019-04-01T09:51:54.848Z,995.88
2019-04-01T09:52:55.029Z,995.93
2019-04-01T09:53:55.199Z,995.83
2019-04-01T09:54:55.393Z,995.86
2019-04-01T09:55:55.542Z,995.83
2019-04-01T09:56:55.724Z,995.86
2019-04-01T09:57:55.896Z,995.84
2019-04-01T09:58:56.071Z,995.89
2019-04-01T09:59:56.244Z,995.87
2019-04-01T10:00:56.431Z,995.80
2019-04-01T10:01:56.600Z,995.77
2019-04-01T10:02:56.778Z,995.79
2019-04-01T10:03:56.952Z,995.70
2019-04-01T10:04:57.127Z,995.70
2019-04-01T10:05:57.308Z,995.63
2019-04-01T10:06:57.482Z,995.63
2019-04-01T10:07:57.660Z,995.63
2019-04-01T10:08:57.839Z,995.69
2019-04-01T10:09:58.014Z,995.73
2019-04-01T10:10:58.190Z,995.81
2019-04-01T10:11:58.369Z,995.92
2019-04-01T10:12:58.548Z,995.92
2019-04-01T10:13:58.723Z,995.87
2019-04-01T10:14:58.904Z,995.89
2019-04-01T10:15:59.078Z,995.81
2019-04-01T10:16:59.253Z,995.83
2019-04-01T10:17:59.435Z,995.84
2019-04-01T10:18:59.608Z,995.87
2019-04-01T10:20:01.043Z,995.96
2019-04-01T10:20:59.966Z,995.92
2019-04-01T10:22:00.143Z,995.90
2019-04-01T10:23:00.319Z,995.96
2019-04-01T10:24:00.497Z,995.87
2019-04-01T10:25:00.674Z,995.87
2019-04-01T10:26:00.850Z,995.88
2019-04-01T10:27:01.026Z,995.82
2019-04-01T10:28:01.203Z,995.83
2019-04-01T10:29:01.382Z,995.85
2019-04-01T10:30:01.564Z,995.82
2019-04-01T10:31:01.737Z,995.82
2019-04-01T10:32:01.912Z,995.82
2019-04-01T10:33:02.664Z,995.74
2019-04-01T10:34:02.264Z,995.72
2019-04-01T10:35:02.440Z,995.66
2019-04-01T10:36:02.620Z,995.70
2019-04-01T10:37:02.795Z,995.67
2019-04-01T10:38:02.973Z,995.66
2019-04-01T10:39:03.151Z,995.71
2019-04-01T10:40:03.327Z,995.71
2019-04-01T10:41:03.507Z,995.60
2019-04-01T10:42:03.682Z,995.59
2019-04-01T10:43:03.865Z,995.64
2019-04-01T10:44:04.982Z,995.60
2019-04-01T10:45:04.220Z,995.55
2019-04-01T10:46:04.397Z,995.59
2019-04-01T10:47:04.641Z,995.59
2019-04-01T10:48:04.803Z,995.64
2019-04-01T10:49:05.002Z,995.61
2019-04-01T10:50:05.128Z,995.59
2019-04-01T10:51:05.397Z,995.55
2019-04-01T10:52:05.470Z,995.62
2019-04-01T10:53:05.668Z,995.59
2019-04-01T10:54:05.873Z,995.61
2019-04-01T10:55:06.020Z,995.64
2019-04-01T10:56:06.265Z,995.68
2019-04-01T10:57:06.378Z,995.73
2019-04-01T10:58:06.581Z,995.75
2019-04-01T10:59:06.730Z,995.81
2019-04-01T11:00:06.965Z,995.85
2019-04-01T11:01:07.201Z,995.89
2019-04-01T11:02:07.285Z,995.97
2019-04-01T11:03:07.450Z,995.94
2019-04-01T11:04:07.632Z,996.01
2019-04-01T11:05:07.857Z,995.95
2019-04-01T11:06:08.079Z,996.02
2019-04-01T11:07:08.329Z,996.03
2019-04-01T11:08:08.342Z,996.01
2019-04-01T11:09:08.535Z,996.02
2019-04-01T11:10:11.292Z,996.09
2019-04-01T11:11:08.883Z,996.05
2019-04-01T11:12:09.061Z,996.06
2019-04-01T11:13:09.242Z,996.11
2019-04-01T11:14:09.421Z,996.11
2019-04-01T11:15:09.602Z,996.15
2019-04-01T11:16:09.784Z,996.15
2019-04-01T11:17:09.964Z,996.12
2019-04-01T11:18:10.179Z,996.12
2019-04-01T11:19:10.440Z,996.18
2019-04-01T11:20:10.502Z,996.19
2019-04-01T11:21:10.682Z,996.20
2019-04-01T11:22:10.864Z,996.19
2019-04-01T11:23:11.044Z,996.09
2019-04-01T11:24:11.230Z,996.17
2019-04-01T11:25:11.406Z,996.18
2019-04-01T11:26:11.587Z,996.21
2019-04-01T11:27:11.766Z,996.17
2019-04-01T11:28:11.943Z,996.23
2019-04-01T11:29:12.126Z,996.19
2019-04-01T11:30:13.831Z,996.19
2019-04-01T11:31:12.503Z,996.18
2019-04-01T11:32:13.519Z,996.20
2019-04-01T11:33:12.891Z,996.18
2019-04-01T11:34:13.065Z,996.06
2019-04-01T11:35:13.220Z,996.14
2019-04-01T11:36:14.007Z,996.11
2019-04-01T11:37:13.615Z,996.16
2019-04-01T11:38:13.755Z,996.20
2019-04-01T11:39:13.956Z,996.10
2019-04-01T11:40:14.164Z,996.10
2019-04-01T11:41:14.297Z,996.03
2019-04-01T11:42:14.474Z,996.04
2019-04-01T11:43:14.664Z,996.02
2019-04-01T11:44:14.834Z,995.92
2019-04-01T11:45:15.024Z,995.99
2019-04-01T11:46:15.199Z,995.79
2019-04-01T11:47:15.386Z,995.39
2019-04-01T11:48:15.692Z,995.43
2019-04-01T11:49:15.749Z,995.70
2019-04-01T11:50:15.925Z,995.83
2019-04-01T11:51:31.420Z,995.97
2019-04-01T11:52:16.314Z,995.91
2019-04-01T11:53:16.468Z,995.84
2019-04-01T11:54:16.649Z,995.83
2019-04-01T11:55:16.833Z,995.78
2019-04-01T11:56:17.010Z,995.76
2019-04-01T11:57:17.194Z,995.66
2019-04-01T11:58:17.378Z,995.62
2019-04-01T11:59:17.557Z,995.62
2019-04-01T12:00:17.737Z,995.58
2019-04-01T12:01:17.920Z,995.60
2019-04-01T12:02:18.103Z,995.54
2019-04-01T12:03:19.073Z,995.55
2019-04-01T12:04:18.466Z,995.49
2019-04-01T12:05:18.648Z,995.52
2019-04-01T12:06:18.832Z,995.46
2019-04-01T12:07:19.008Z,995.44
2019-04-01T12:08:19.191Z,995.44
2019-04-01T12:09:19.373Z,995.41
2019-04-01T12:10:19.556Z,995.38
2019-04-01T12:11:19.778Z,995.41
2019-04-01T12:12:23.957Z,995.33
2019-04-01T12:13:20.104Z,995.35
2019-04-01T12:14:20.291Z,995.34
2019-04-01T12:15:20.473Z,995.36
2019-04-01T12:16:20.661Z,995.32
2019-04-01T12:17:20.838Z,995.28
2019-04-01T12:18:21.018Z,995.27
2019-04-01T12:19:21.200Z,995.25
2019-04-01T12:20:21.380Z,995.25
2019-04-01T12:21:21.562Z,995.23
2019-04-01T12:22:21.745Z,995.16
2019-04-01T12:23:21.930Z,995.23
2019-04-01T12:24:22.116Z,995.21
2019-04-01T12:25:22.300Z,995.16
2019-04-01T12:26:22.486Z,994.98
2019-04-01T12:27:22.667Z,994.83
2019-04-01T12:28:22.849Z,995.03
2019-04-01T12:29:23.028Z,994.98
2019-04-01T12:30:23.217Z,994.96
2019-04-01T12:31:23.397Z,994.85
2019-04-01T12:32:23.577Z,994.79
2019-04-01T12:33:26.077Z,994.61
2019-04-01T12:34:23.940Z,994.88
2019-04-01T12:35:24.121Z,994.83
2019-04-01T12:36:24.327Z,994.98
2019-04-01T12:37:24.489Z,995.03
2019-04-01T12:38:24.674Z,995.03
2019-04-01T12:39:24.855Z,995.05
2019-04-01T12:40:25.037Z,995.10
2019-04-01T12:41:25.232Z,995.12
2019-04-01T12:42:25.414Z,995.12
2019-04-01T12:43:25.599Z,994.97
2019-04-01T12:44:25.779Z,994.93
2019-04-01T12:45:25.966Z,994.69
2019-04-01T12:46:26.145Z,994.32
2019-04-01T12:47:26.329Z,994.21
2019-04-01T12:48:26.510Z,994.23
2019-04-01T12:49:26.690Z,994.19
2019-04-01T12:50:26.874Z,994.20
2019-04-01T12:51:27.056Z,994.18
2019-04-01T12:52:27.238Z,994.13
2019-04-01T12:53:27.423Z,994.18
2019-04-01T12:54:27.605Z,994.14
2019-04-01T12:55:27.790Z,994.18
2019-04-01T12:56:27.969Z,994.20
2019-04-01T12:57:28.154Z,994.15
2019-04-01T12:58:28.337Z,994.20
2019-04-01T12:59:28.521Z,994.18
2019-04-01T13:00:29.330Z,994.14
2019-04-01T13:01:28.884Z,994.19
2019-04-01T13:02:29.068Z,994.17
2019-04-01T13:03:29.253Z,994.14
2019-04-01T13:04:29.434Z,994.12
2019-04-01T13:05:29.618Z,994.08
2019-04-01T13:06:29.799Z,994.07
2019-04-01T13:07:29.984Z,994.04
2019-04-01T13:08:30.172Z,993.99
2019-04-01T13:09:30.352Z,993.98
2019-04-01T13:10:30.536Z,993.88
2019-04-01T13:11:30.718Z,993.96
2019-04-01T13:12:30.903Z,993.87
2019-04-01T13:13:31.088Z,993.79
2019-04-01T13:14:31.273Z,993.83
2019-04-01T13:15:31.458Z,993.70
2019-04-01T13:16:31.641Z,993.73
2019-04-01T13:17:31.824Z,993.72
2019-04-01T13:18:32.007Z,993.70
2019-04-01T13:19:32.190Z,993.75
2019-04-01T13:20:38.142Z,993.74
2019-04-01T13:21:34.578Z,993.77
2019-04-01T13:22:32.741Z,993.78
2019-04-01T13:23:32.924Z,993.73
2019-04-01T13:24:33.218Z,993.72
2019-04-01T13:25:34.017Z,993.77
2019-04-01T13:26:33.475Z,993.64
2019-04-01T13:27:33.656Z,993.64
2019-04-01T13:28:33.841Z,993.68
2019-04-01T13:29:34.021Z,993.60
2019-04-01T13:30:34.207Z,993.67
2019-04-01T13:31:34.389Z,993.59
2019-04-01T13:32:34.573Z,993.61
2019-04-01T13:33:34.759Z,993.55
2019-04-01T13:34:34.941Z,993.56
2019-04-01T13:35:35.123Z,993.56
2019-04-01T13:36:35.306Z,993.53
2019-04-01T13:37:35.492Z,993.55
2019-04-01T13:38:35.678Z,993.52
2019-04-01T13:39:35.861Z,993.48
2019-04-01T13:40:36.043Z,993.51
2019-04-01T13:41:42.697Z,993.51
2019-04-01T13:42:36.412Z,993.39
2019-04-01T13:43:36.597Z,993.39
2019-04-01T13:44:37.783Z,993.38
2019-04-01T13:45:36.964Z,993.43
2019-04-01T13:46:37.152Z,993.34
2019-04-01T13:47:40.895Z,993.37
2019-04-01T13:48:37.518Z,993.30
2019-04-01T13:49:37.703Z,993.28
2019-04-01T13:50:37.889Z,993.30
2019-04-01T13:51:38.074Z,993.29
2019-04-01T13:52:38.255Z,993.25
2019-04-01T13:53:38.439Z,993.18
2019-04-01T13:54:38.623Z,993.13
2019-04-01T13:55:38.804Z,993.14
2019-04-01T13:56:38.992Z,993.06
2019-04-01T13:57:39.172Z,993.14
2019-04-01T13:58:39.671Z,993.07
2019-04-01T13:59:49.247Z,993.08
2019-04-01T14:00:39.720Z,993.09
2019-04-01T14:01:39.903Z,993.04
2019-04-01T14:02:40.086Z,993.02
2019-04-01T14:03:40.267Z,993.10
2019-04-01T14:04:40.449Z,993.04
2019-04-01T14:05:40.636Z,993.03
2019-04-01T14:06:40.816Z,993.00
2019-04-01T14:07:40.998Z,992.98
2019-04-01T14:08:41.178Z,992.97
2019-04-01T14:09:41.360Z,993.02
2019-04-01T14:10:41.548Z,992.90
2019-04-01T14:11:41.731Z,992.93
2019-04-01T14:12:41.916Z,992.86
2019-04-01T14:13:42.097Z,992.87
2019-04-01T14:14:42.282Z,992.86
2019-04-01T14:15:42.463Z,992.87
2019-04-01T14:16:42.648Z,992.86
2019-04-01T14:17:42.829Z,992.86
2019-04-01T14:18:43.011Z,992.83
2019-04-01T14:19:43.193Z,992.83
2019-04-01T14:20:43.376Z,992.81
2019-04-01T14:21:43.564Z,992.77
2019-04-01T14:22:44.454Z,992.77
2019-04-01T14:23:43.929Z,992.75
2019-04-01T14:24:45.227Z,992.73
2019-04-01T14:25:44.298Z,992.77
2019-04-01T14:26:44.480Z,992.71
2019-04-01T14:27:44.663Z,992.69
2019-04-01T14:28:44.843Z,992.72
2019-04-01T14:29:45.026Z,992.72
2019-04-01T14:30:45.212Z,992.70
2019-04-01T14:31:45.399Z,992.69
2019-04-01T14:32:45.577Z,992.68
2019-04-01T14:33:45.758Z,992.69
2019-04-01T14:34:45.940Z,992.66
2019-04-01T14:35:46.126Z,992.66
2019-04-01T14:36:46.307Z,992.64
2019-04-01T14:37:46.492Z,992.61
2019-04-01T14:38:46.695Z,992.57
2019-04-01T14:39:46.852Z,992.63
2019-04-01T14:40:47.040Z,992.57
2019-04-01T14:41:47.220Z,992.56
2019-04-01T14:42:47.406Z,992.51
2019-04-01T14:43:47.592Z,992.50
2019-04-01T14:44:47.778Z,992.49
2019-04-01T14:45:47.959Z,992.49
2019-04-01T14:46:48.141Z,992.45
2019-04-01T14:47:57.217Z,992.45
2019-04-01T14:48:48.507Z,992.43
2019-04-01T14:49:48.691Z,992.44
2019-04-01T14:50:48.873Z,992.44
2019-04-01T14:51:49.067Z,992.43
2019-04-01T14:52:49.236Z,992.39
2019-04-01T14:53:49.420Z,992.35
2019-04-01T14:54:49.600Z,992.36
2019-04-01T14:55:49.786Z,992.42
2019-04-01T14:56:49.968Z,992.31
2019-04-01T14:57:50.148Z,992.30
2019-04-01T14:58:50.332Z,992.36
2019-04-01T14:59:50.520Z,992.30
2019-04-01T15:00:50.698Z,992.26
2019-04-01T15:01:50.876Z,992.24
2019-04-01T15:02:51.059Z,992.22
2019-04-01T15:03:51.240Z,992.16
2019-04-01T15:04:51.422Z,992.17
2019-04-01T15:05:51.602Z,992.19
2019-04-01T15:06:51.786Z,992.18
2019-04-01T15:07:51.967Z,992.14
2019-04-01T15:08:52.149Z,992.20
2019-04-01T15:09:52.330Z,992.15
2019-04-01T15:10:52.512Z,992.11
2019-04-01T15:11:52.697Z,992.17
2019-04-01T15:13:04.405Z,992.13
2019-04-01T15:13:53.056Z,992.13
2019-04-01T15:14:53.236Z,992.11
2019-04-01T15:15:53.453Z,992.07
2019-04-01T15:16:53.601Z,992.11
2019-04-01T15:17:53.780Z,992.06
2019-04-01T15:18:53.960Z,992.05
2019-04-01T15:19:54.143Z,992.10
2019-04-01T15:20:54.329Z,992.07
2019-04-01T15:21:54.502Z,992.05
2019-04-01T15:22:54.684Z,992.01
2019-04-01T15:23:54.911Z,991.97
2019-04-01T15:24:55.049Z,991.99
2019-04-01T15:25:55.229Z,992.01
2019-04-01T15:26:55.410Z,991.97
2019-04-01T15:27:58.196Z,991.98
2019-04-01T15:28:55.773Z,991.96
2019-04-01T15:29:55.952Z,991.97
2019-04-01T15:30:56.566Z,991.92
2019-04-01T15:31:56.314Z,991.94
2019-04-01T15:32:56.496Z,991.92
2019-04-01T15:33:56.676Z,991.89
2019-04-01T15:34:56.859Z,991.90
2019-04-01T15:35:57.037Z,991.84
2019-04-01T15:36:57.218Z,991.85
2019-04-01T15:37:57.397Z,991.82
2019-04-01T15:38:57.579Z,991.83
2019-04-01T15:39:57.759Z,991.80
2019-04-01T15:40:58.391Z,991.76
2019-04-01T15:41:58.120Z,991.79
2019-04-01T15:42:58.300Z,991.77
2019-04-01T15:43:58.481Z,991.76
2019-04-01T15:44:58.659Z,991.73
2019-04-01T15:45:58.842Z,991.76
2019-04-01T15:46:59.020Z,991.72
2019-04-01T15:47:59.201Z,991.67
2019-04-01T15:48:59.381Z,991.65
2019-04-01T15:49:59.562Z,991.65
2019-04-01T15:50:59.742Z,991.64
2019-04-01T15:51:59.925Z,991.65
2019-04-01T15:53:00.104Z,991.59
2019-04-01T15:54:01.510Z,991.63
2019-04-01T15:55:00.509Z,991.63
2019-04-01T15:56:00.640Z,991.62
2019-04-01T15:57:00.820Z,991.59
2019-04-01T15:58:00.999Z,991.55
2019-04-01T15:59:01.179Z,991.55
2019-04-01T16:00:03.170Z,991.59
2019-04-01T16:01:01.645Z,991.58
2019-04-01T16:02:01.718Z,991.56
2019-04-01T16:03:01.893Z,991.57
2019-04-01T16:04:02.074Z,991.51
2019-04-01T16:05:02.256Z,991.50
2019-04-01T16:06:03.143Z,991.43
2019-04-01T16:07:02.611Z,991.44
2019-04-01T16:08:02.794Z,991.45
2019-04-01T16:09:02.971Z,991.36
2019-04-01T16:10:03.173Z,991.36
2019-04-01T16:11:03.324Z,991.36
2019-04-01T16:12:03.503Z,991.32
2019-04-01T16:13:03.680Z,991.32
2019-04-01T16:14:03.862Z,991.34
2019-04-01T16:15:04.040Z,991.32
2019-04-01T16:16:04.217Z,991.34
2019-04-01T16:17:05.283Z,991.33
2019-04-01T16:18:04.575Z,991.29
2019-04-01T16:19:04.747Z,991.28
2019-04-01T16:20:04.940Z,991.26
2019-04-01T16:21:05.103Z,991.22
2019-04-01T16:22:05.289Z,991.22
2019-04-01T16:23:05.464Z,991.23
2019-04-01T16:24:05.642Z,991.19
2019-04-01T16:25:05.819Z,991.17
2019-04-01T16:26:09.363Z,991.17
2019-04-01T16:27:06.180Z,991.18
2019-04-01T16:28:06.350Z,991.13
2019-04-01T16:29:06.523Z,991.12
2019-04-01T16:30:06.702Z,991.10
2019-04-01T16:31:06.879Z,991.13